sensor_id;sensor_type;location;lat;lon;timestamp;pressure;altitude;pressure_sealevel;temperature;humidity
58473;BME280;44775;51.564;5.460;2022-09-09T00:02:19;100558.63;;;12.59;100.00
58473;BME280;44775;51.564;5.460;2022-09-09T00:05:17;100550.78;;;12.57;100.00
58473;BME280;44775;51.564;5.460;2022-09-09T00:07:50;100554.50;;;12.56;100.00
58473;BME280;44775;51.564;5.460;2022-09-09T00:10:22;100556.72;;;12.52;100.00
58473;BME280;44775;51.564;5.460;2022-09-09T00:15:59;100552.56;;;12.50;100.00
58473;BME280;44775;51.564;5.460;2022-09-09T00:21:24;100544.09;;;12.46;100.00
58473;BME280;44775;51.564;5.460;2022-09-09T00:23:54;100538.88;;;12.45;100.00
58473;BME280;44775;51.564;5.460;2022-09-09T00:26:42;100536.41;;;12.43;100.00
58473;BME280;44775;51.564;5.460;2022-09-09T00:29:24;100544.81;;;12.40;100.00
58473;BME280;44775;51.564;5.460;2022-09-09T00:31:57;100535.59;;;12.43;100.00
58473;BME280;44775;51.564;5.460;2022-09-09T00:34:26;100534.56;;;12.44;100.00
58473;BME280;44775;51.564;5.460;2022-09-09T00:36:53;100539.09;;;12.43;100.00
58473;BME280;44775;51.564;5.460;2022-09-09T00:39:32;100539.91;;;12.44;100.00
58473;BME280;44775;51.564;5.460;2022-09-09T00:42:07;100539.09;;;12.43;100.00
58473;BME280;44775;51.564;5.460;2022-09-09T00:44:37;100533.53;;;12.45;100.00
58473;BME280;44775;51.564;5.460;2022-09-09T00:50:13;100518.09;;;12.47;100.00
58473;BME280;44775;51.564;5.460;2022-09-09T00:57:53;100519.31;;;12.44;100.00
58473;BME280;44775;51.564;5.460;2022-09-09T01:02:56;100513.78;;;12.46;100.00
58473;BME280;44775;51.564;5.460;2022-09-09T01:05:44;100522.81;;;12.45;100.00
58473;BME280;44775;51.564;5.460;2022-09-09T01:08:23;100508.13;;;12.41;100.00
58473;BME280;44775;51.564;5.460;2022-09-09T01:10:56;100517.81;;;12.42;100.00
58473;BME280;44775;51.564;5.460;2022-09-09T01:13:29;100512.28;;;12.43;100.00
58473;BME280;44775;51.564;5.460;2022-09-09T01:16:00;100514.59;;;12.46;100.00
58473;BME280;44775;51.564;5.460;2022-09-09T01:18:44;100514.16;;;12.43;100.00
58473;BME280;44775;51.564;5.460;2022-09-09T01:21:26;100516.63;;;12.44;100.00
58473;BME280;44775;51.564;5.460;2022-09-09T01:26:32;100507.75;;;12.44;100.00
58473;BME280;44775;51.564;5.460;2022-09-09T01:29:00;100516.81;;;12.43;100.00
58473;BME280;44775;51.564;5.460;2022-09-09T01:31:30;100511.63;;;12.41;100.00
58473;BME280;44775;51.564;5.460;2022-09-09T01:33:57;100511.63;;;12.41;100.00
58473;BME280;44775;51.564;5.460;2022-09-09T01:36:29;100508.88;;;12.35;100.00
58473;BME280;44775;51.564;5.460;2022-09-09T01:38:59;100507.06;;;12.35;100.00
58473;BME280;44775;51.564;5.460;2022-09-09T01:41:25;100507.06;;;12.35;100.00
58473;BME280;44775;51.564;5.460;2022-09-09T01:43:50;100502.69;;;12.34;100.00
58473;BME280;44775;51.564;5.460;2022-09-09T01:46:18;100493.66;;;12.35;100.00
58473;BME280;44775;51.564;5.460;2022-09-09T01:48:45;100498.63;;;12.38;100.00
58473;BME280;44775;51.564;5.460;2022-09-09T01:51:11;100496.59;;;12.40;100.00
58473;BME280;44775;51.564;5.460;2022-09-09T01:53:38;100494.94;;;12.39;100.00
58473;BME280;44775;51.564;5.460;2022-09-09T01:59:18;100493.72;;;12.42;100.00
58473;BME280;44775;51.564;5.460;2022-09-09T02:04:24;100490.97;;;12.35;100.00
58473;BME280;44775;51.564;5.460;2022-09-09T02:06:55;100493.66;;;12.35;100.00
58473;BME280;44775;51.564;5.460;2022-09-09T02:09:23;100489.88;;;12.29;100.00
58473;BME280;44775;51.564;5.460;2022-09-09T02:11:54;100474.75;;;12.22;100.00
58473;BME280;44775;51.564;5.460;2022-09-09T02:14:36;100485.47;;;12.22;100.00
58473;BME280;44775;51.564;5.460;2022-09-09T02:17:10;100479.09;;;12.23;100.00
58473;BME280;44775;51.564;5.460;2022-09-09T02:19:59;100475.97;;;12.19;100.00
58473;BME280;44775;51.564;5.460;2022-09-09T02:22:28;100476.56;;;12.21;100.00
58473;BME280;44775;51.564;5.460;2022-09-09T02:24:59;100472.44;;;12.19;100.00
58473;BME280;44775;51.564;5.460;2022-09-09T02:27:25;100474.09;;;12.20;100.00
58473;BME280;44775;51.564;5.460;2022-09-09T02:29:51;100474.31;;;12.18;100.00
58473;BME280;44775;51.564;5.460;2022-09-09T02:32:21;100472.91;;;12.22;100.00
58473;BME280;44775;51.564;5.460;2022-09-09T02:34:55;100472.44;;;12.19;100.00
58473;BME280;44775;51.564;5.460;2022-09-09T02:37:24;100475.66;;;12.14;100.00
58473;BME280;44775;51.564;5.460;2022-09-09T02:39:54;100474.47;;;12.17;100.00
58473;BME280;44775;51.564;5.460;2022-09-09T02:42:19;100474.94;;;12.20;100.00
58473;BME280;44775;51.564;5.460;2022-09-09T02:44:45;100472.63;;;12.17;100.00
58473;BME280;44775;51.564;5.460;2022-09-09T02:47:30;100473.66;;;12.16;100.00
58473;BME280;44775;51.564;5.460;2022-09-09T02:50:22;100474.41;;;12.10;100.00
58473;BME280;44775;51.564;5.460;2022-09-09T02:57:56;100480.94;;;12.08;100.00
58473;BME280;44775;51.564;5.460;2022-09-09T03:00:27;100489.63;;;12.10;100.00
58473;BME280;44775;51.564;5.460;2022-09-09T03:02:54;100481.78;;;12.08;100.00
58473;BME280;44775;51.564;5.460;2022-09-09T03:05:20;100478.19;;;12.16;100.00
58473;BME280;44775;51.564;5.460;2022-09-09T03:07:46;100479.94;;;12.09;100.00
58473;BME280;44775;51.564;5.460;2022-09-09T03:10:12;100485.75;;;12.12;100.00
58473;BME280;44775;51.564;5.460;2022-09-09T03:12:38;100483.25;;;12.11;100.00
58473;BME280;44775;51.564;5.460;2022-09-09T03:15:05;100483.91;;;12.13;100.00
58473;BME280;44775;51.564;5.460;2022-09-09T03:17:30;100485.38;;;12.15;100.00
58473;BME280;44775;51.564;5.460;2022-09-09T03:19:56;100483.72;;;12.14;100.00
58473;BME280;44775;51.564;5.460;2022-09-09T03:22:23;100488.25;;;12.14;100.00
58473;BME280;44775;51.564;5.460;2022-09-09T03:24:48;100503.28;;;12.15;100.00
58473;BME280;44775;51.564;5.460;2022-09-09T03:27:14;100493.44;;;12.15;100.00
58473;BME280;44775;51.564;5.460;2022-09-09T03:29:40;100493.69;;;12.20;100.00
58473;BME280;44775;51.564;5.460;2022-09-09T03:32:05;100493.50;;;12.22;100.00
58473;BME280;44775;51.564;5.460;2022-09-09T03:34:31;100481.19;;;12.27;100.00
58473;BME280;44775;51.564;5.460;2022-09-09T03:36:57;100487.38;;;12.28;100.00
58473;BME280;44775;51.564;5.460;2022-09-09T03:39:22;100482.47;;;12.32;100.00
58473;BME280;44775;51.564;5.460;2022-09-09T03:41:48;100487.81;;;12.32;100.00
58473;BME280;44775;51.564;5.460;2022-09-09T03:44:14;100485.78;;;12.34;100.00
58473;BME280;44775;51.564;5.460;2022-09-09T03:46:40;100483.94;;;12.34;100.00
58473;BME280;44775;51.564;5.460;2022-09-09T03:49:05;100479.25;;;12.36;100.00
58473;BME280;44775;51.564;5.460;2022-09-09T03:51:31;100486.44;;;12.36;100.00
58473;BME280;44775;51.564;5.460;2022-09-09T03:53:56;100481.72;;;12.38;100.00
58473;BME280;44775;51.564;5.460;2022-09-09T03:56:24;100481.16;;;12.42;100.00
58473;BME280;44775;51.564;5.460;2022-09-09T03:58:49;100484.09;;;12.47;100.00
58473;BME280;44775;51.564;5.460;2022-09-09T04:01:15;100483.19;;;12.40;100.00
58473;BME280;44775;51.564;5.460;2022-09-09T04:03:43;100485.03;;;12.40;100.00
58473;BME280;44775;51.564;5.460;2022-09-09T04:06:11;100475.59;;;12.44;100.00
58473;BME280;44775;51.564;5.460;2022-09-09T04:08:38;100484.47;;;12.44;100.00
58473;BME280;44775;51.564;5.460;2022-09-09T04:11:04;100479.91;;;12.60;100.00
58473;BME280;44775;51.564;5.460;2022-09-09T04:13:35;100475.50;;;12.52;100.00
58473;BME280;44775;51.564;5.460;2022-09-09T04:16:01;100471.97;;;12.51;100.00
58473;BME280;44775;51.564;5.460;2022-09-09T04:18:29;100473.81;;;12.51;100.00
58473;BME280;44775;51.564;5.460;2022-09-09T04:20:55;100466.81;;;12.50;100.00
58473;BME280;44775;51.564;5.460;2022-09-09T04:23:23;100476.50;;;12.51;100.00
58473;BME280;44775;51.564;5.460;2022-09-09T04:25:51;100468.84;;;12.48;100.00
58473;BME280;44775;51.564;5.460;2022-09-09T04:28:19;100474.09;;;12.56;100.00
58473;BME280;44775;51.564;5.460;2022-09-09T04:30:45;100463.81;;;12.60;100.00
58473;BME280;44775;51.564;5.460;2022-09-09T04:33:11;100463.44;;;12.63;100.00
58473;BME280;44775;51.564;5.460;2022-09-09T04:35:38;100467.13;;;12.62;100.00
58473;BME280;44775;51.564;5.460;2022-09-09T04:38:04;100463.44;;;12.63;100.00
58473;BME280;44775;51.564;5.460;2022-09-09T04:40:30;100463.44;;;12.63;100.00
58473;BME280;44775;51.564;5.460;2022-09-09T04:43:01;100459.28;;;12.60;100.00
58473;BME280;44775;51.564;5.460;2022-09-09T04:45:28;100457.44;;;12.61;100.00
58473;BME280;44775;51.564;5.460;2022-09-09T04:47:53;100460.25;;;12.52;100.00
58473;BME280;44775;51.564;5.460;2022-09-09T04:50:19;100461.91;;;12.53;100.00
58473;BME280;44775;51.564;5.460;2022-09-09T04:52:44;100467.06;;;12.55;100.00
58473;BME280;44775;51.564;5.460;2022-09-09T04:55:10;100452.66;;;12.56;100.00
58473;BME280;44775;51.564;5.460;2022-09-09T04:57:37;100458.00;;;12.56;100.00
58473;BME280;44775;51.564;5.460;2022-09-09T05:00:03;100457.34;;;12.54;100.00
58473;BME280;44775;51.564;5.460;2022-09-09T05:02:29;100458.84;;;12.57;100.00
58473;BME280;44775;51.564;5.460;2022-09-09T05:04:55;100457.44;;;12.61;100.00
58473;BME280;44775;51.564;5.460;2022-09-09T05:07:21;100455.19;;;12.64;100.00
58473;BME280;44775;51.564;5.460;2022-09-09T05:09:47;100441.19;;;12.69;100.00
58473;BME280;44775;51.564;5.460;2022-09-09T05:12:15;100448.25;;;12.70;100.00
58473;BME280;44775;51.564;5.460;2022-09-09T05:14:42;100447.84;;;12.73;100.00
58473;BME280;44775;51.564;5.460;2022-09-09T05:17:07;100448.09;;;12.78;100.00
58473;BME280;44775;51.564;5.460;2022-09-09T05:19:33;100451.44;;;12.80;100.00
58473;BME280;44775;51.564;5.460;2022-09-09T05:21:58;100450.00;;;12.84;100.00
58473;BME280;44775;51.564;5.460;2022-09-09T05:24:24;100448.09;;;12.78;100.00
58473;BME280;44775;51.564;5.460;2022-09-09T05:26:49;100443.81;;;12.84;100.00
58473;BME280;44775;51.564;5.460;2022-09-09T05:29:15;100443.00;;;12.83;100.00
58473;BME280;44775;51.564;5.460;2022-09-09T05:31:42;100431.25;;;12.84;100.00
58473;BME280;44775;51.564;5.460;2022-09-09T05:34:07;100439.94;;;12.86;100.00
58473;BME280;44775;51.564;5.460;2022-09-09T05:36:33;100436.22;;;12.87;100.00
58473;BME280;44775;51.564;5.460;2022-09-09T05:38:58;100436.88;;;12.89;100.00
58473;BME280;44775;51.564;5.460;2022-09-09T05:41:23;100441.38;;;12.89;100.00
58473;BME280;44775;51.564;5.460;2022-09-09T05:43:49;100450.91;;;12.91;100.00
58473;BME280;44775;51.564;5.460;2022-09-09T05:46:19;100452.53;;;12.92;100.00
58473;BME280;44775;51.564;5.460;2022-09-09T05:48:47;100450.50;;;12.94;100.00
58473;BME280;44775;51.564;5.460;2022-09-09T05:51:15;100455.09;;;13.00;100.00
58473;BME280;44775;51.564;5.460;2022-09-09T05:53:43;100452.88;;;13.04;100.00
58473;BME280;44775;51.564;5.460;2022-09-09T05:56:11;100459.75;;;13.13;100.00
58473;BME280;44775;51.564;5.460;2022-09-09T05:58:37;100459.97;;;13.18;100.00
58473;BME280;44775;51.564;5.460;2022-09-09T06:01:08;100465.25;;;13.27;100.00
58473;BME280;44775;51.564;5.460;2022-09-09T06:03:36;100471.88;;;13.31;100.00
58473;BME280;44775;51.564;5.460;2022-09-09T06:06:07;100462.78;;;13.32;100.00
58473;BME280;44775;51.564;5.460;2022-09-09T06:08:34;100459.50;;;13.36;100.00
58473;BME280;44775;51.564;5.460;2022-09-09T06:11:16;100457.28;;;13.40;100.00
58473;BME280;44775;51.564;5.460;2022-09-09T06:13:43;100470.53;;;13.48;100.00
58473;BME280;44775;51.564;5.460;2022-09-09T06:16:10;100461.72;;;13.54;100.00
58473;BME280;44775;51.564;5.460;2022-09-09T06:18:37;100466.72;;;13.64;100.00
58473;BME280;44775;51.564;5.460;2022-09-09T06:21:04;100461.81;;;13.74;100.00
58473;BME280;44775;51.564;5.460;2022-09-09T06:23:30;100460.03;;;13.88;100.00
58473;BME280;44775;51.564;5.460;2022-09-09T06:26:08;100465.25;;;14.03;100.00
58473;BME280;44775;51.564;5.460;2022-09-09T06:28:35;100467.59;;;14.19;100.00
58473;BME280;44775;51.564;5.460;2022-09-09T06:31:03;100465.59;;;14.34;100.00
58473;BME280;44775;51.564;5.460;2022-09-09T06:33:34;100463.34;;;14.45;100.00
58473;BME280;44775;51.564;5.460;2022-09-09T06:36:00;100466.03;;;14.45;100.00
58473;BME280;44775;51.564;5.460;2022-09-09T06:38:27;100465.84;;;14.53;100.00
58473;BME280;44775;51.564;5.460;2022-09-09T06:40:54;100465.44;;;14.56;100.00
58473;BME280;44775;51.564;5.460;2022-09-09T06:43:27;100459.44;;;14.67;100.00
58473;BME280;44775;51.564;5.460;2022-09-09T06:46:00;100462.38;;;14.72;100.00
58473;BME280;44775;51.564;5.460;2022-09-09T06:48:26;100473.56;;;14.82;100.00
58473;BME280;44775;51.564;5.460;2022-09-09T06:51:07;100466.72;;;14.86;100.00
58473;BME280;44775;51.564;5.460;2022-09-09T06:53:37;100470.44;;;14.79;100.00
58473;BME280;44775;51.564;5.460;2022-09-09T06:56:24;100454.31;;;14.85;100.00
58473;BME280;44775;51.564;5.460;2022-09-09T06:58:51;100465.50;;;15.16;100.00
58473;BME280;44775;51.564;5.460;2022-09-09T07:01:27;100455.13;;;15.39;100.00
58473;BME280;44775;51.564;5.460;2022-09-09T07:03:55;100466.88;;;15.71;100.00
58473;BME280;44775;51.564;5.460;2022-09-09T07:06:41;100479.22;;;15.92;100.00
58473;BME280;44775;51.564;5.460;2022-09-09T07:09:10;100473.53;;;16.20;100.00
58473;BME280;44775;51.564;5.460;2022-09-09T07:11:45;100476.31;;;16.45;99.98
58473;BME280;44775;51.564;5.460;2022-09-09T07:14:11;100472.50;;;16.53;98.06
58473;BME280;44775;51.564;5.460;2022-09-09T07:16:41;100467.94;;;16.53;96.55
58473;BME280;44775;51.564;5.460;2022-09-09T07:19:07;100474.91;;;16.74;96.02
58473;BME280;44775;51.564;5.460;2022-09-09T07:21:33;100480.81;;;16.90;94.32
58473;BME280;44775;51.564;5.460;2022-09-09T07:23:59;100468.53;;;16.94;93.40
58473;BME280;44775;51.564;5.460;2022-09-09T07:26:29;100468.09;;;16.97;93.38
58473;BME280;44775;51.564;5.460;2022-09-09T07:28:56;100462.97;;;17.14;92.03
58473;BME280;44775;51.564;5.460;2022-09-09T07:31:33;100462.88;;;17.02;93.53
58473;BME280;44775;51.564;5.460;2022-09-09T07:34:00;100457.75;;;17.19;93.83
58473;BME280;44775;51.564;5.460;2022-09-09T07:36:33;100460.50;;;17.56;90.37
58473;BME280;44775;51.564;5.460;2022-09-09T07:39:02;100464.22;;;17.80;89.47
58473;BME280;44775;51.564;5.460;2022-09-09T07:41:42;100474.22;;;17.54;88.49
58473;BME280;44775;51.564;5.460;2022-09-09T07:44:11;100468.94;;;17.41;90.33
58473;BME280;44775;51.564;5.460;2022-09-09T07:46:38;100477.97;;;17.35;89.78
58473;BME280;44775;51.564;5.460;2022-09-09T07:49:07;100485.84;;;17.11;89.46
58473;BME280;44775;51.564;5.460;2022-09-09T07:51:38;100477.56;;;17.06;91.20
58473;BME280;44775;51.564;5.460;2022-09-09T07:54:09;100471.50;;;16.86;91.81
58473;BME280;44775;51.564;5.460;2022-09-09T07:56:37;100474.47;;;16.78;91.25
58473;BME280;44775;51.564;5.460;2022-09-09T07:59:03;100472.59;;;16.78;91.54
58473;BME280;44775;51.564;5.460;2022-09-09T08:01:32;100468.63;;;16.81;92.15
58473;BME280;44775;51.564;5.460;2022-09-09T08:04:00;100474.78;;;16.94;92.78
58473;BME280;44775;51.564;5.460;2022-09-09T08:06:27;100462.88;;;17.02;90.96
58473;BME280;44775;51.564;5.460;2022-09-09T08:08:53;100466.84;;;17.25;89.05
58473;BME280;44775;51.564;5.460;2022-09-09T08:11:21;100467.03;;;17.23;91.76
58473;BME280;44775;51.564;5.460;2022-09-09T08:13:48;100469.38;;;17.38;88.15
58473;BME280;44775;51.564;5.460;2022-09-09T08:16:17;100475.63;;;17.38;88.36
58473;BME280;44775;51.564;5.460;2022-09-09T08:18:42;100472.38;;;17.30;87.56
58473;BME280;44775;51.564;5.460;2022-09-09T08:21:13;100470.94;;;17.27;88.92
58473;BME280;44775;51.564;5.460;2022-09-09T08:23:41;100479.00;;;17.34;88.62
58473;BME280;44775;51.564;5.460;2022-09-09T08:26:11;100486.50;;;17.32;87.58
58473;BME280;44775;51.564;5.460;2022-09-09T08:28:36;100480.03;;;17.33;87.13
58473;BME280;44775;51.564;5.460;2022-09-09T08:31:11;100487.47;;;17.37;87.52
58473;BME280;44775;51.564;5.460;2022-09-09T08:33:41;100488.84;;;17.65;85.98
58473;BME280;44775;51.564;5.460;2022-09-09T08:36:10;100485.03;;;17.54;86.38
58473;BME280;44775;51.564;5.460;2022-09-09T08:38:36;100491.78;;;17.63;87.93
58473;BME280;44775;51.564;5.460;2022-09-09T08:44:02;100492.41;;;17.65;86.91
58473;BME280;44775;51.564;5.460;2022-09-09T08:46:42;100496.59;;;17.61;86.28
58473;BME280;44775;51.564;5.460;2022-09-09T08:51:35;100498.84;;;17.46;86.14
58473;BME280;44775;51.564;5.460;2022-09-09T08:54:03;100493.88;;;17.43;86.72
58473;BME280;44775;51.564;5.460;2022-09-09T08:56:31;100501.59;;;17.39;86.33
58473;BME280;44775;51.564;5.460;2022-09-09T08:58:59;100502.41;;;17.40;85.69
58473;BME280;44775;51.564;5.460;2022-09-09T09:01:38;100500.88;;;17.26;85.75
58473;BME280;44775;51.564;5.460;2022-09-09T09:09:26;100501.41;;;17.34;86.25
58473;BME280;44775;51.564;5.460;2022-09-09T09:12:00;100511.44;;;17.27;87.19
58473;BME280;44775;51.564;5.460;2022-09-09T09:14:29;100510.81;;;17.32;87.16
58473;BME280;44775;51.564;5.460;2022-09-09T09:17:02;100513.72;;;17.30;86.15
58473;BME280;44775;51.564;5.460;2022-09-09T09:19:30;100508.88;;;17.39;86.12
58473;BME280;44775;51.564;5.460;2022-09-09T09:22:18;100511.44;;;17.52;85.50
58473;BME280;44775;51.564;5.460;2022-09-09T09:24:51;100516.19;;;17.57;84.56
58473;BME280;44775;51.564;5.460;2022-09-09T09:27:31;100515.19;;;17.51;84.20
58473;BME280;44775;51.564;5.460;2022-09-09T09:29:59;100514.88;;;17.41;85.00
58473;BME280;44775;51.564;5.460;2022-09-09T09:32:29;100516.69;;;17.47;84.63
58473;BME280;44775;51.564;5.460;2022-09-09T09:34:57;100515.16;;;17.33;85.21
58473;BME280;44775;51.564;5.460;2022-09-09T09:37:30;100519.00;;;17.43;84.80
58473;BME280;44775;51.564;5.460;2022-09-09T09:40:08;100523.97;;;17.46;85.43
58473;BME280;44775;51.564;5.460;2022-09-09T09:42:34;100520.59;;;17.51;85.23
58473;BME280;44775;51.564;5.460;2022-09-09T09:45:40;100518.56;;;17.65;85.82
58473;BME280;44775;51.564;5.460;2022-09-09T09:48:09;100511.97;;;17.86;82.98
58473;BME280;44775;51.564;5.460;2022-09-09T09:50:47;100514.53;;;17.99;83.13
58473;BME280;44775;51.564;5.460;2022-09-09T09:53:33;100515.84;;;18.08;83.16
58473;BME280;44775;51.564;5.460;2022-09-09T09:56:01;100516.41;;;17.55;87.06
58473;BME280;44775;51.564;5.460;2022-09-09T09:58:31;100511.41;;;17.34;89.40
58473;BME280;44775;51.564;5.460;2022-09-09T10:01:00;100499.50;;;17.16;89.19
58473;BME280;44775;51.564;5.460;2022-09-09T10:03:29;100514.94;;;17.09;88.40
58473;BME280;44775;51.564;5.460;2022-09-09T10:05:55;100516.28;;;16.93;90.68
58473;BME280;44775;51.564;5.460;2022-09-09T10:08:24;100507.97;;;16.95;89.87
58473;BME280;44775;51.564;5.460;2022-09-09T10:11:09;100513.53;;;16.68;93.17
58473;BME280;44775;51.564;5.460;2022-09-09T10:19:34;100511.44;;;16.25;97.14
58473;BME280;44775;51.564;5.460;2022-09-09T10:22:18;100511.28;;;16.20;98.02
58473;BME280;44775;51.564;5.460;2022-09-09T10:27:42;100517.22;;;16.36;99.95
58473;BME280;44775;51.564;5.460;2022-09-09T10:30:27;100517.16;;;16.49;98.32
58473;BME280;44775;51.564;5.460;2022-09-09T10:33:09;100533.75;;;16.46;97.01
58473;BME280;44775;51.564;5.460;2022-09-09T10:38:39;100533.66;;;16.27;98.42
58473;BME280;44775;51.564;5.460;2022-09-09T10:41:16;100523.97;;;16.13;99.86
58473;BME280;44775;51.564;5.460;2022-09-09T10:44:17;100529.50;;;16.25;100.00
58473;BME280;44775;51.564;5.460;2022-09-09T10:57:52;100518.66;;;16.38;100.00
58473;BME280;44775;51.564;5.460;2022-09-09T11:00:39;100523.97;;;16.58;99.98
58473;BME280;44775;51.564;5.460;2022-09-09T11:03:08;100513.13;;;16.65;100.00
58473;BME280;44775;51.564;5.460;2022-09-09T11:05:49;100520.50;;;16.83;99.22
58473;BME280;44775;51.564;5.460;2022-09-09T11:08:20;100514.34;;;16.69;99.18
58473;BME280;44775;51.564;5.460;2022-09-09T11:10:49;100515.59;;;16.66;99.08
58473;BME280;44775;51.564;5.460;2022-09-09T11:14:01;100524.03;;;16.45;100.00
58473;BME280;44775;51.564;5.460;2022-09-09T11:16:58;100530.44;;;16.50;100.00
58473;BME280;44775;51.564;5.460;2022-09-09T11:19:40;100519.25;;;16.47;99.88
58473;BME280;44775;51.564;5.460;2022-09-09T11:24:46;100512.69;;;16.68;100.00
58473;BME280;44775;51.564;5.460;2022-09-09T11:27:35;100512.69;;;16.74;100.00
58473;BME280;44775;51.564;5.460;2022-09-09T11:32:47;100521.72;;;16.87;100.00
58473;BME280;44775;51.564;5.460;2022-09-09T11:41:04;100515.47;;;16.55;100.00
58473;BME280;44775;51.564;5.460;2022-09-09T11:46:10;100512.94;;;16.60;100.00
58473;BME280;44775;51.564;5.460;2022-09-09T11:48:39;100519.41;;;16.52;100.00
58473;BME280;44775;51.564;5.460;2022-09-09T11:53:57;100508.13;;;16.68;100.00
58473;BME280;44775;51.564;5.460;2022-09-09T11:56:31;100512.75;;;16.61;100.00
58473;BME280;44775;51.564;5.460;2022-09-09T11:59:05;100507.34;;;16.61;100.00
58473;BME280;44775;51.564;5.460;2022-09-09T12:01:42;100512.28;;;16.71;100.00
58473;BME280;44775;51.564;5.460;2022-09-09T12:06:46;100522.41;;;17.07;99.98
58473;BME280;44775;51.564;5.460;2022-09-09T12:09:23;100513.34;;;17.27;96.76
58473;BME280;44775;51.564;5.460;2022-09-09T12:11:50;100517.47;;;17.29;99.71
58473;BME280;44775;51.564;5.460;2022-09-09T12:14:35;100512.78;;;17.61;95.44
58473;BME280;44775;51.564;5.460;2022-09-09T12:17:22;100509.53;;;17.78;94.63
58473;BME280;44775;51.564;5.460;2022-09-09T12:19:48;100516.31;;;18.05;95.14
58473;BME280;44775;51.564;5.460;2022-09-09T12:34:16;100506.66;;;18.76;87.18
58473;BME280;44775;51.564;5.460;2022-09-09T12:36:44;100505.50;;;18.54;85.52
58473;BME280;44775;51.564;5.460;2022-09-09T12:39:19;100505.41;;;18.60;86.33
58473;BME280;44775;51.564;5.460;2022-09-09T12:41:53;100511.19;;;18.64;86.57
58473;BME280;44775;51.564;5.460;2022-09-09T12:44:26;100494.50;;;18.37;86.41
58473;BME280;44775;51.564;5.460;2022-09-09T12:46:54;100498.34;;;18.29;85.80
58473;BME280;44775;51.564;5.460;2022-09-09T12:49:35;100499.06;;;18.06;85.36
58473;BME280;44775;51.564;5.460;2022-09-09T12:52:27;100499.28;;;17.86;88.46
58473;BME280;44775;51.564;5.460;2022-09-09T12:54:56;100498.38;;;17.49;90.54
58473;BME280;44775;51.564;5.460;2022-09-09T12:57:23;100498.34;;;17.31;92.12
58473;BME280;44775;51.564;5.460;2022-09-09T12:59:51;100495.25;;;17.02;95.61
58473;BME280;44775;51.564;5.460;2022-09-09T13:02:26;100501.19;;;16.86;96.13
58473;BME280;44775;51.564;5.460;2022-09-09T13:04:53;100493.84;;;16.61;100.00
58473;BME280;44775;51.564;5.460;2022-09-09T13:07:20;100488.78;;;16.40;100.00
58473;BME280;44775;51.564;5.460;2022-09-09T13:09:47;100499.22;;;16.23;100.00
58473;BME280;44775;51.564;5.460;2022-09-09T13:12:19;100492.97;;;16.29;100.00
58473;BME280;44775;51.564;5.460;2022-09-09T13:14:50;100482.75;;;16.44;100.00
58473;BME280;44775;51.564;5.460;2022-09-09T13:17:22;100479.03;;;16.70;100.00
58473;BME280;44775;51.564;5.460;2022-09-09T13:19:49;100475.63;;;17.13;100.00
58473;BME280;44775;51.564;5.460;2022-09-09T13:22:37;100477.16;;;17.53;100.00
58473;BME280;44775;51.564;5.460;2022-09-09T13:27:39;100481.00;;;18.79;100.00
58473;BME280;44775;51.564;5.460;2022-09-09T13:35:49;100492.28;;;19.88;89.85
58473;BME280;44775;51.564;5.460;2022-09-09T13:38:16;100481.03;;;20.08;87.82
58473;BME280;44775;51.564;5.460;2022-09-09T13:40:54;100482.53;;;20.16;84.79
58473;BME280;44775;51.564;5.460;2022-09-09T13:43:22;100479.25;;;20.14;85.50
58473;BME280;44775;51.564;5.460;2022-09-09T13:49:01;100489.38;;;19.78;84.34
58473;BME280;44775;51.564;5.460;2022-09-09T13:51:34;100484.50;;;19.92;85.88
58473;BME280;44775;51.564;5.460;2022-09-09T13:54:00;100475.66;;;19.49;84.22
58473;BME280;44775;51.564;5.460;2022-09-09T13:56:26;100484.38;;;19.40;85.80
58473;BME280;44775;51.564;5.460;2022-09-09T13:58:52;100486.47;;;19.02;86.87
58473;BME280;44775;51.564;5.460;2022-09-09T14:01:20;100483.00;;;18.72;89.29
58473;BME280;44775;51.564;5.460;2022-09-09T14:03:46;100480.06;;;18.43;90.26
58473;BME280;44775;51.564;5.460;2022-09-09T14:06:11;100476.94;;;18.28;92.67
58473;BME280;44775;51.564;5.460;2022-09-09T14:08:37;100471.38;;;18.23;91.73
58473;BME280;44775;51.564;5.460;2022-09-09T14:11:04;100463.72;;;18.20;91.54
58473;BME280;44775;51.564;5.460;2022-09-09T14:13:29;100465.97;;;18.23;95.22
58473;BME280;44775;51.564;5.460;2022-09-09T14:15:55;100465.13;;;18.22;91.63
58473;BME280;44775;51.564;5.460;2022-09-09T14:18:20;100468.78;;;18.46;91.70
58473;BME280;44775;51.564;5.460;2022-09-09T14:20:48;100457.03;;;18.52;89.67
58473;BME280;44775;51.564;5.460;2022-09-09T14:23:16;100464.91;;;18.54;87.29
58473;BME280;44775;51.564;5.460;2022-09-09T14:25:43;100466.00;;;18.64;89.29
58473;BME280;44775;51.564;5.460;2022-09-09T14:28:12;100462.47;;;18.94;90.71
58473;BME280;44775;51.564;5.460;2022-09-09T14:30:39;100466.72;;;19.14;87.80
58473;BME280;44775;51.564;5.460;2022-09-09T14:33:06;100459.41;;;19.02;86.28
58473;BME280;44775;51.564;5.460;2022-09-09T14:35:31;100462.72;;;19.28;85.99
58473;BME280;44775;51.564;5.460;2022-09-09T14:37:58;100472.97;;;19.14;83.28
58473;BME280;44775;51.564;5.460;2022-09-09T14:40:24;100458.25;;;19.22;84.20
58473;BME280;44775;51.564;5.460;2022-09-09T14:42:49;100460.13;;;19.33;84.22
58473;BME280;44775;51.564;5.460;2022-09-09T14:45:15;100461.06;;;19.39;83.10
58473;BME280;44775;51.564;5.460;2022-09-09T14:47:40;100460.13;;;19.33;80.81